R72107 ETIH-ETAD
Flight info
| Callsign | R72107 |
|---|---|
| Flight time | 1h 39m |
| Altitude | 7000 |
| Route | VFR |
| Aircraft | EC45/L-SGT/S |
Departure
| Time | 2026-05-07 13:20 |
|---|---|
| Airport | Hohenfels Army Airfield (ETIH) |
Arrival
| Time | 2026-05-07 14:59 |
|---|---|
| Airport | Spangdahlem Air Base (ETAD) |
| Time | Latitude | Longitude | Altitude | Speed | Heading |
|---|---|---|---|---|---|
| 2026-05-07 13:15 | 49.21586 | 11.84088 | 1459 ft | 0 kts | 330° |
| 2026-05-07 13:19 | 49.21585 | 11.84089 | 1466 ft | 0 kts | 329° |
| 2026-05-07 13:19 | 49.21600 | 11.84034 | 1470 ft | 8 kts | 315° |
| 2026-05-07 13:19 | 49.21649 | 11.83831 | 1578 ft | 49 kts | 277° |
| 2026-05-07 13:20 | 49.21597 | 11.83085 | 1911 ft | 77 kts | 244° |
| 2026-05-07 13:20 | 49.21328 | 11.82289 | 2160 ft | 90 kts | 241° |
| 2026-05-07 13:20 | 49.21013 | 11.81419 | 2366 ft | 98 kts | 246° |
| 2026-05-07 13:20 | 49.20669 | 11.80473 | 2514 ft | 103 kts | 246° |
| 2026-05-07 13:21 | 49.20327 | 11.79542 | 2773 ft | 98 kts | 245° |
| 2026-05-07 13:21 | 49.20000 | 11.78652 | 3052 ft | 94 kts | 246° |
| 2026-05-07 13:21 | 49.19690 | 11.77800 | 3372 ft | 92 kts | 246° |
| 2026-05-07 13:21 | 49.19376 | 11.76956 | 3730 ft | 90 kts | 245° |
| 2026-05-07 13:22 | 49.19069 | 11.76132 | 4050 ft | 88 kts | 245° |
| 2026-05-07 13:22 | 49.18769 | 11.75332 | 4296 ft | 89 kts | 245° |
| 2026-05-07 13:22 | 49.18453 | 11.74470 | 4298 ft | 100 kts | 244° |
| 2026-05-07 13:22 | 49.18204 | 11.73420 | 4291 ft | 110 kts | 261° |
| 2026-05-07 13:23 | 49.18159 | 11.72261 | 4291 ft | 108 kts | 272° |
| 2026-05-07 13:23 | 49.18243 | 11.71103 | 4293 ft | 110 kts | 278° |
| 2026-05-07 13:23 | 49.18367 | 11.69961 | 4283 ft | 110 kts | 278° |
| 2026-05-07 13:23 | 49.18480 | 11.68803 | 4288 ft | 111 kts | 277° |
| 2026-05-07 13:24 | 49.18587 | 11.67646 | 4292 ft | 109 kts | 277° |
| 2026-05-07 13:24 | 49.18695 | 11.66490 | 4281 ft | 111 kts | 277° |
| 2026-05-07 13:24 | 49.18805 | 11.65334 | 4294 ft | 110 kts | 277° |
| 2026-05-07 13:24 | 49.18915 | 11.64163 | 4290 ft | 111 kts | 277° |
| 2026-05-07 13:25 | 49.19023 | 11.63007 | 4287 ft | 111 kts | 277° |
| 2026-05-07 13:25 | 49.19135 | 11.61822 | 4292 ft | 113 kts | 276° |
| 2026-05-07 13:25 | 49.19244 | 11.60651 | 4284 ft | 113 kts | 276° |
| 2026-05-07 13:25 | 49.19359 | 11.59443 | 4290 ft | 113 kts | 276° |
| 2026-05-07 13:26 | 49.19467 | 11.58277 | 4297 ft | 111 kts | 277° |
| 2026-05-07 13:26 | 49.19572 | 11.57141 | 4303 ft | 107 kts | 277° |
| 2026-05-07 13:26 | 49.19686 | 11.55991 | 4293 ft | 111 kts | 277° |
| 2026-05-07 13:26 | 49.19805 | 11.54828 | 4280 ft | 111 kts | 278° |
| 2026-05-07 13:27 | 49.19928 | 11.53640 | 4276 ft | 111 kts | 277° |
| 2026-05-07 13:27 | 49.20052 | 11.52482 | 4278 ft | 112 kts | 278° |
| 2026-05-07 13:27 | 49.20168 | 11.51392 | 4281 ft | 111 kts | 278° |
| 2026-05-07 13:27 | 49.20285 | 11.50224 | 4288 ft | 111 kts | 278° |
| 2026-05-07 13:28 | 49.20396 | 11.49059 | 4287 ft | 111 kts | 277° |
| 2026-05-07 13:28 | 49.20506 | 11.47890 | 4288 ft | 111 kts | 277° |
| 2026-05-07 13:28 | 49.20626 | 11.46718 | 4290 ft | 111 kts | 279° |
| 2026-05-07 13:28 | 49.20783 | 11.45561 | 4368 ft | 113 kts | 281° |
| 2026-05-07 13:29 | 49.20948 | 11.44392 | 4646 ft | 110 kts | 280° |
| 2026-05-07 13:29 | 49.21108 | 11.43229 | 4809 ft | 113 kts | 280° |
| 2026-05-07 13:29 | 49.21266 | 11.42059 | 4988 ft | 113 kts | 280° |
| 2026-05-07 13:29 | 49.21424 | 11.40878 | 5060 ft | 117 kts | 279° |
| 2026-05-07 13:30 | 49.21590 | 11.39606 | 5041 ft | 125 kts | 279° |
| 2026-05-07 13:30 | 49.21753 | 11.38323 | 5023 ft | 122 kts | 279° |
| 2026-05-07 13:30 | 49.21914 | 11.37061 | 5004 ft | 123 kts | 280° |
| 2026-05-07 13:30 | 49.22082 | 11.35770 | 5002 ft | 124 kts | 280° |
| 2026-05-07 13:31 | 49.22250 | 11.34478 | 5006 ft | 123 kts | 280° |
| 2026-05-07 13:31 | 49.22417 | 11.33185 | 5003 ft | 124 kts | 280° |
| 2026-05-07 13:31 | 49.22584 | 11.31898 | 5003 ft | 123 kts | 280° |
| 2026-05-07 13:31 | 49.22751 | 11.30612 | 5004 ft | 123 kts | 280° |
| 2026-05-07 13:32 | 49.22919 | 11.29323 | 5006 ft | 123 kts | 280° |
| 2026-05-07 13:32 | 49.23087 | 11.28038 | 5003 ft | 123 kts | 280° |
| 2026-05-07 13:32 | 49.23256 | 11.26749 | 5005 ft | 125 kts | 280° |
| 2026-05-07 13:32 | 49.23425 | 11.25450 | 5011 ft | 124 kts | 280° |
| 2026-05-07 13:33 | 49.23592 | 11.24162 | 5004 ft | 124 kts | 280° |
| 2026-05-07 13:33 | 49.23761 | 11.22865 | 5010 ft | 124 kts | 280° |
| 2026-05-07 13:33 | 49.23929 | 11.21570 | 5009 ft | 123 kts | 280° |
| 2026-05-07 13:33 | 49.24095 | 11.20286 | 5005 ft | 123 kts | 280° |
| 2026-05-07 13:34 | 49.24264 | 11.18990 | 5008 ft | 125 kts | 280° |
| 2026-05-07 13:34 | 49.24599 | 11.16412 | 5008 ft | 124 kts | 280° |
| 2026-05-07 13:34 | 49.24766 | 11.15115 | 5006 ft | 124 kts | 280° |
| 2026-05-07 13:35 | 49.24933 | 11.13825 | 5010 ft | 124 kts | 280° |
| 2026-05-07 13:35 | 49.25100 | 11.12533 | 5011 ft | 124 kts | 280° |
| 2026-05-07 13:35 | 49.25267 | 11.11237 | 5009 ft | 124 kts | 280° |
| 2026-05-07 13:35 | 49.25434 | 11.09939 | 5012 ft | 124 kts | 280° |
| 2026-05-07 13:36 | 49.25599 | 11.08653 | 5016 ft | 122 kts | 280° |
| 2026-05-07 13:36 | 49.25764 | 11.07373 | 5011 ft | 123 kts | 280° |
| 2026-05-07 13:36 | 49.25927 | 11.06105 | 5016 ft | 123 kts | 280° |
| 2026-05-07 13:36 | 49.26093 | 11.04820 | 5011 ft | 124 kts | 280° |
| 2026-05-07 13:37 | 49.26260 | 11.03524 | 5017 ft | 124 kts | 280° |
| 2026-05-07 13:37 | 49.26425 | 11.02227 | 5013 ft | 124 kts | 280° |
| 2026-05-07 13:37 | 49.26591 | 11.00937 | 5015 ft | 124 kts | 280° |
| 2026-05-07 13:37 | 49.26759 | 10.99629 | 5014 ft | 124 kts | 280° |
| 2026-05-07 13:38 | 49.26926 | 10.98324 | 5010 ft | 125 kts | 280° |
| 2026-05-07 13:38 | 49.27092 | 10.97024 | 5009 ft | 125 kts | 280° |
| 2026-05-07 13:38 | 49.27260 | 10.95717 | 5015 ft | 125 kts | 280° |
| 2026-05-07 13:38 | 49.27426 | 10.94415 | 5011 ft | 124 kts | 280° |
| 2026-05-07 13:39 | 49.27593 | 10.93114 | 5015 ft | 124 kts | 280° |
| 2026-05-07 13:39 | 49.27756 | 10.91832 | 5016 ft | 124 kts | 281° |
| 2026-05-07 13:39 | 49.27920 | 10.90533 | 5020 ft | 124 kts | 280° |
| 2026-05-07 13:39 | 49.28087 | 10.89225 | 5017 ft | 125 kts | 280° |
| 2026-05-07 13:40 | 49.28252 | 10.87921 | 5014 ft | 125 kts | 280° |
| 2026-05-07 13:40 | 49.28417 | 10.86619 | 5018 ft | 124 kts | 280° |
| 2026-05-07 13:40 | 49.28582 | 10.85318 | 5011 ft | 125 kts | 280° |
| 2026-05-07 13:40 | 49.28747 | 10.84013 | 5017 ft | 125 kts | 280° |
| 2026-05-07 13:41 | 49.28912 | 10.82708 | 5016 ft | 125 kts | 280° |
| 2026-05-07 13:41 | 49.29076 | 10.81417 | 5012 ft | 125 kts | 279° |
| 2026-05-07 13:41 | 49.29240 | 10.80112 | 5019 ft | 124 kts | 279° |
| 2026-05-07 13:41 | 49.29404 | 10.78812 | 5012 ft | 124 kts | 280° |
| 2026-05-07 13:42 | 49.29571 | 10.77491 | 5014 ft | 124 kts | 280° |
| 2026-05-07 13:42 | 49.29732 | 10.76210 | 5012 ft | 124 kts | 280° |
| 2026-05-07 13:42 | 49.29897 | 10.74904 | 5015 ft | 125 kts | 280° |
| 2026-05-07 13:42 | 49.30060 | 10.73600 | 5017 ft | 125 kts | 280° |
| 2026-05-07 13:43 | 49.30224 | 10.72293 | 5013 ft | 125 kts | 280° |
| 2026-05-07 13:43 | 49.30387 | 10.70990 | 5012 ft | 124 kts | 280° |
| 2026-05-07 13:43 | 49.30549 | 10.69690 | 5014 ft | 124 kts | 280° |
| 2026-05-07 13:43 | 49.30711 | 10.68394 | 5013 ft | 124 kts | 280° |
| 2026-05-07 13:44 | 49.30875 | 10.67090 | 5014 ft | 124 kts | 280° |
| 2026-05-07 13:44 | 49.31038 | 10.65786 | 5015 ft | 124 kts | 280° |
| 2026-05-07 13:44 | 49.31146 | 10.64920 | 5013 ft | 125 kts | 280° |
| 2026-05-07 13:44 | 49.31309 | 10.63614 | 5014 ft | 125 kts | 280° |
| 2026-05-07 13:45 | 49.31471 | 10.62309 | 5015 ft | 124 kts | 280° |
| 2026-05-07 13:45 | 49.31632 | 10.61010 | 5013 ft | 124 kts | 280° |
| 2026-05-07 13:45 | 49.31794 | 10.59708 | 5014 ft | 125 kts | 280° |
| 2026-05-07 13:45 | 49.31956 | 10.58404 | 5017 ft | 124 kts | 280° |
| 2026-05-07 13:46 | 49.32119 | 10.57097 | 5008 ft | 125 kts | 280° |
| 2026-05-07 13:46 | 49.32281 | 10.55793 | 5015 ft | 124 kts | 280° |
| 2026-05-07 13:46 | 49.32441 | 10.54496 | 5013 ft | 124 kts | 280° |
| 2026-05-07 13:46 | 49.32601 | 10.53194 | 5013 ft | 124 kts | 280° |
| 2026-05-07 13:47 | 49.32761 | 10.51902 | 5012 ft | 126 kts | 280° |
| 2026-05-07 13:47 | 49.32923 | 10.50592 | 5014 ft | 124 kts | 280° |
| 2026-05-07 13:47 | 49.33084 | 10.49284 | 5010 ft | 126 kts | 280° |
| 2026-05-07 13:47 | 49.33248 | 10.47960 | 5014 ft | 126 kts | 279° |
| 2026-05-07 13:48 | 49.33407 | 10.46661 | 5014 ft | 124 kts | 279° |
| 2026-05-07 13:48 | 49.33568 | 10.45354 | 5012 ft | 125 kts | 279° |
| 2026-05-07 13:48 | 49.33728 | 10.44051 | 5022 ft | 124 kts | 279° |
| 2026-05-07 13:48 | 49.33886 | 10.42754 | 5018 ft | 123 kts | 280° |
| 2026-05-07 13:49 | 49.34041 | 10.41477 | 5019 ft | 123 kts | 280° |
| 2026-05-07 13:49 | 49.34198 | 10.40175 | 5021 ft | 123 kts | 280° |
| 2026-05-07 13:49 | 49.34356 | 10.38879 | 5011 ft | 124 kts | 280° |
| 2026-05-07 13:49 | 49.34515 | 10.37574 | 5013 ft | 124 kts | 280° |
| 2026-05-07 13:50 | 49.34675 | 10.36269 | 5016 ft | 124 kts | 281° |
| 2026-05-07 13:50 | 49.34836 | 10.34967 | 5015 ft | 125 kts | 280° |
| 2026-05-07 13:50 | 49.34994 | 10.33669 | 5016 ft | 123 kts | 280° |
| 2026-05-07 13:50 | 49.35153 | 10.32374 | 5012 ft | 124 kts | 280° |
| 2026-05-07 13:51 | 49.35312 | 10.31075 | 5017 ft | 124 kts | 279° |
| 2026-05-07 13:51 | 49.35468 | 10.29783 | 5020 ft | 123 kts | 279° |
| 2026-05-07 13:51 | 49.35623 | 10.28482 | 5016 ft | 124 kts | 279° |
| 2026-05-07 13:51 | 49.35779 | 10.27179 | 5015 ft | 124 kts | 280° |
| 2026-05-07 13:52 | 49.35934 | 10.25897 | 5016 ft | 124 kts | 280° |
| 2026-05-07 13:52 | 49.36092 | 10.24587 | 5014 ft | 123 kts | 280° |
| 2026-05-07 13:52 | 49.36248 | 10.23304 | 5008 ft | 125 kts | 280° |
| 2026-05-07 13:52 | 49.36408 | 10.21996 | 5012 ft | 124 kts | 279° |
| 2026-05-07 13:53 | 49.36565 | 10.20700 | 5012 ft | 124 kts | 280° |
| 2026-05-07 13:53 | 49.36725 | 10.19388 | 5019 ft | 126 kts | 280° |
| 2026-05-07 13:53 | 49.36884 | 10.18080 | 5026 ft | 124 kts | 279° |
| 2026-05-07 13:53 | 49.37041 | 10.16780 | 5015 ft | 124 kts | 280° |
| 2026-05-07 13:54 | 49.37201 | 10.15460 | 5020 ft | 126 kts | 279° |
| 2026-05-07 13:54 | 49.37356 | 10.14152 | 5027 ft | 124 kts | 279° |
| 2026-05-07 13:54 | 49.37511 | 10.12850 | 5022 ft | 124 kts | 281° |
| 2026-05-07 13:54 | 49.37715 | 10.11551 | 5023 ft | 126 kts | 283° |
| 2026-05-07 13:55 | 49.37935 | 10.10260 | 5023 ft | 125 kts | 283° |
| 2026-05-07 13:55 | 49.38155 | 10.08981 | 5028 ft | 126 kts | 283° |
| 2026-05-07 13:55 | 49.38382 | 10.07672 | 5025 ft | 126 kts | 284° |
| 2026-05-07 13:55 | 49.38604 | 10.06392 | 5028 ft | 125 kts | 284° |
| 2026-05-07 13:56 | 49.38827 | 10.05106 | 5028 ft | 125 kts | 284° |
| 2026-05-07 13:56 | 49.39052 | 10.03806 | 5028 ft | 127 kts | 284° |
| 2026-05-07 13:56 | 49.39278 | 10.02497 | 5030 ft | 125 kts | 284° |
| 2026-05-07 13:56 | 49.39501 | 10.01207 | 5022 ft | 126 kts | 284° |
| 2026-05-07 13:57 | 49.39728 | 9.99901 | 5025 ft | 126 kts | 284° |
| 2026-05-07 13:57 | 49.39952 | 9.98607 | 5021 ft | 126 kts | 284° |
| 2026-05-07 13:57 | 49.40181 | 9.97290 | 5017 ft | 128 kts | 284° |
| 2026-05-07 13:57 | 49.40409 | 9.95980 | 5026 ft | 126 kts | 284° |
| 2026-05-07 13:58 | 49.40632 | 9.94688 | 5028 ft | 124 kts | 284° |
| 2026-05-07 13:58 | 49.40854 | 9.93398 | 5030 ft | 125 kts | 284° |
| 2026-05-07 13:58 | 49.41077 | 9.92100 | 5025 ft | 126 kts | 284° |
| 2026-05-07 13:58 | 49.41305 | 9.90790 | 5011 ft | 130 kts | 284° |
| 2026-05-07 13:59 | 49.41536 | 9.89462 | 5035 ft | 127 kts | 284° |
| 2026-05-07 13:59 | 49.41759 | 9.88153 | 5022 ft | 128 kts | 284° |
| 2026-05-07 13:59 | 49.41987 | 9.86830 | 5027 ft | 127 kts | 284° |
| 2026-05-07 13:59 | 49.42209 | 9.85535 | 5017 ft | 126 kts | 284° |
| 2026-05-07 14:00 | 49.42438 | 9.84221 | 5024 ft | 127 kts | 284° |
| 2026-05-07 14:00 | 49.42660 | 9.82934 | 5020 ft | 127 kts | 284° |
| 2026-05-07 14:00 | 49.42890 | 9.81607 | 5022 ft | 129 kts | 284° |
| 2026-05-07 14:00 | 49.43116 | 9.80290 | 5031 ft | 127 kts | 284° |
| 2026-05-07 14:01 | 49.43344 | 9.78966 | 5018 ft | 129 kts | 284° |
| 2026-05-07 14:01 | 49.43572 | 9.77639 | 5020 ft | 127 kts | 284° |
| 2026-05-07 14:01 | 49.43799 | 9.76319 | 5017 ft | 129 kts | 284° |
| 2026-05-07 14:01 | 49.44026 | 9.74989 | 5021 ft | 128 kts | 285° |
| 2026-05-07 14:02 | 49.44252 | 9.73667 | 5016 ft | 128 kts | 285° |
| 2026-05-07 14:02 | 49.44479 | 9.72342 | 5018 ft | 128 kts | 284° |
| 2026-05-07 14:02 | 49.44704 | 9.71023 | 5015 ft | 128 kts | 284° |
| 2026-05-07 14:02 | 49.44929 | 9.69708 | 5014 ft | 128 kts | 284° |
| 2026-05-07 14:03 | 49.45156 | 9.68379 | 5015 ft | 128 kts | 284° |
| 2026-05-07 14:03 | 49.45381 | 9.67058 | 5019 ft | 127 kts | 284° |
| 2026-05-07 14:03 | 49.45606 | 9.65740 | 5022 ft | 128 kts | 284° |
| 2026-05-07 14:03 | 49.45830 | 9.64421 | 5013 ft | 128 kts | 284° |
| 2026-05-07 14:04 | 49.46056 | 9.63099 | 5015 ft | 128 kts | 284° |
| 2026-05-07 14:04 | 49.46279 | 9.61788 | 5016 ft | 128 kts | 284° |
| 2026-05-07 14:04 | 49.46507 | 9.60443 | 5008 ft | 128 kts | 285° |
| 2026-05-07 14:04 | 49.46730 | 9.59127 | 5014 ft | 128 kts | 285° |
| 2026-05-07 14:05 | 49.46956 | 9.57798 | 5012 ft | 129 kts | 285° |
| 2026-05-07 14:05 | 49.47182 | 9.56469 | 5017 ft | 129 kts | 284° |
| 2026-05-07 14:05 | 49.47409 | 9.55130 | 5018 ft | 129 kts | 284° |
| 2026-05-07 14:05 | 49.47633 | 9.53800 | 5012 ft | 128 kts | 285° |
| 2026-05-07 14:06 | 49.47858 | 9.52468 | 5013 ft | 128 kts | 285° |
| 2026-05-07 14:06 | 49.48083 | 9.51137 | 5012 ft | 129 kts | 285° |
| 2026-05-07 14:06 | 49.48307 | 9.49812 | 5008 ft | 130 kts | 285° |
| 2026-05-07 14:06 | 49.48536 | 9.48456 | 5011 ft | 129 kts | 285° |
| 2026-05-07 14:07 | 49.48759 | 9.47126 | 5007 ft | 128 kts | 285° |
| 2026-05-07 14:07 | 49.48979 | 9.45817 | 5010 ft | 128 kts | 285° |
| 2026-05-07 14:07 | 49.49208 | 9.44457 | 5005 ft | 130 kts | 285° |
| 2026-05-07 14:07 | 49.49429 | 9.43139 | 5000 ft | 130 kts | 284° |
| 2026-05-07 14:08 | 49.49655 | 9.41790 | 5013 ft | 129 kts | 284° |
| 2026-05-07 14:08 | 49.49879 | 9.40451 | 5006 ft | 130 kts | 284° |
| 2026-05-07 14:08 | 49.50105 | 9.39105 | 5012 ft | 129 kts | 285° |
| 2026-05-07 14:08 | 49.50331 | 9.37757 | 5007 ft | 130 kts | 285° |
| 2026-05-07 14:09 | 49.50558 | 9.36408 | 5009 ft | 131 kts | 285° |
| 2026-05-07 14:09 | 49.50787 | 9.35047 | 5014 ft | 131 kts | 285° |
| 2026-05-07 14:09 | 49.51013 | 9.33692 | 5013 ft | 130 kts | 285° |
| 2026-05-07 14:09 | 49.51237 | 9.32347 | 5012 ft | 129 kts | 285° |
| 2026-05-07 14:10 | 49.51462 | 9.31003 | 5010 ft | 130 kts | 285° |
| 2026-05-07 14:10 | 49.51688 | 9.29652 | 5012 ft | 130 kts | 285° |
| 2026-05-07 14:10 | 49.51913 | 9.28300 | 5011 ft | 130 kts | 285° |
| 2026-05-07 14:10 | 49.52137 | 9.26953 | 5012 ft | 130 kts | 285° |
| 2026-05-07 14:11 | 49.52363 | 9.25604 | 5013 ft | 131 kts | 285° |
| 2026-05-07 14:11 | 49.52589 | 9.24242 | 5013 ft | 130 kts | 285° |
| 2026-05-07 14:11 | 49.52797 | 9.22883 | 5014 ft | 130 kts | 283° |
| 2026-05-07 14:11 | 49.52983 | 9.21522 | 5015 ft | 130 kts | 282° |
| 2026-05-07 14:12 | 49.53167 | 9.20155 | 5015 ft | 131 kts | 282° |
| 2026-05-07 14:12 | 49.53352 | 9.18773 | 5010 ft | 132 kts | 282° |
| 2026-05-07 14:12 | 49.53535 | 9.17399 | 5010 ft | 131 kts | 282° |
| 2026-05-07 14:12 | 49.53714 | 9.16041 | 5012 ft | 130 kts | 282° |
| 2026-05-07 14:13 | 49.53894 | 9.14672 | 5007 ft | 131 kts | 282° |
| 2026-05-07 14:13 | 49.54075 | 9.13298 | 5013 ft | 131 kts | 282° |
| 2026-05-07 14:13 | 49.54255 | 9.11923 | 5015 ft | 131 kts | 282° |
| 2026-05-07 14:13 | 49.54433 | 9.10558 | 5001 ft | 131 kts | 283° |
| 2026-05-07 14:14 | 49.54617 | 9.09162 | 5013 ft | 130 kts | 282° |
| 2026-05-07 14:14 | 49.54795 | 9.07797 | 5007 ft | 131 kts | 283° |
| 2026-05-07 14:14 | 49.54974 | 9.06427 | 5017 ft | 130 kts | 282° |
| 2026-05-07 14:14 | 49.55152 | 9.05062 | 5012 ft | 131 kts | 282° |
| 2026-05-07 14:15 | 49.55331 | 9.03693 | 5021 ft | 131 kts | 282° |
| 2026-05-07 14:15 | 49.55509 | 9.02320 | 5017 ft | 129 kts | 282° |
| 2026-05-07 14:15 | 49.55684 | 9.00961 | 5019 ft | 129 kts | 282° |
| 2026-05-07 14:15 | 49.55863 | 8.99594 | 5018 ft | 132 kts | 282° |
| 2026-05-07 14:16 | 49.56041 | 8.98219 | 5022 ft | 130 kts | 282° |
| 2026-05-07 14:16 | 49.56217 | 8.96846 | 5016 ft | 130 kts | 282° |
| 2026-05-07 14:16 | 49.56396 | 8.95471 | 5018 ft | 131 kts | 282° |
| 2026-05-07 14:16 | 49.56574 | 8.94096 | 5022 ft | 131 kts | 282° |
| 2026-05-07 14:17 | 49.56750 | 8.92734 | 5019 ft | 131 kts | 282° |
| 2026-05-07 14:17 | 49.56929 | 8.91353 | 5018 ft | 132 kts | 282° |
| 2026-05-07 14:17 | 49.57108 | 8.89970 | 5019 ft | 131 kts | 282° |
| 2026-05-07 14:17 | 49.57290 | 8.88568 | 5016 ft | 133 kts | 282° |
| 2026-05-07 14:18 | 49.57468 | 8.87191 | 5026 ft | 131 kts | 281° |
| 2026-05-07 14:18 | 49.57645 | 8.85807 | 5020 ft | 132 kts | 282° |
| 2026-05-07 14:18 | 49.57823 | 8.84421 | 5016 ft | 132 kts | 282° |
| 2026-05-07 14:18 | 49.58003 | 8.83028 | 5022 ft | 132 kts | 282° |
| 2026-05-07 14:19 | 49.58180 | 8.81640 | 5022 ft | 131 kts | 282° |
| 2026-05-07 14:19 | 49.58358 | 8.80253 | 5017 ft | 132 kts | 282° |
| 2026-05-07 14:19 | 49.58535 | 8.78861 | 5023 ft | 131 kts | 282° |
| 2026-05-07 14:19 | 49.58710 | 8.77490 | 5020 ft | 133 kts | 282° |
| 2026-05-07 14:20 | 49.58887 | 8.76105 | 5026 ft | 132 kts | 282° |
| 2026-05-07 14:20 | 49.59063 | 8.74722 | 5021 ft | 132 kts | 283° |
| 2026-05-07 14:20 | 49.59244 | 8.73301 | 5025 ft | 132 kts | 282° |
| 2026-05-07 14:20 | 49.59419 | 8.71927 | 5025 ft | 132 kts | 282° |
| 2026-05-07 14:21 | 49.59592 | 8.70556 | 5017 ft | 132 kts | 282° |
| 2026-05-07 14:21 | 49.59773 | 8.69143 | 5010 ft | 133 kts | 282° |
| 2026-05-07 14:21 | 49.59951 | 8.67743 | 5021 ft | 132 kts | 282° |
| 2026-05-07 14:21 | 49.60126 | 8.66366 | 5022 ft | 132 kts | 282° |
| 2026-05-07 14:22 | 49.60302 | 8.64971 | 5019 ft | 132 kts | 282° |
| 2026-05-07 14:22 | 49.60478 | 8.63581 | 5020 ft | 133 kts | 282° |
| 2026-05-07 14:22 | 49.60655 | 8.62176 | 5028 ft | 132 kts | 282° |
| 2026-05-07 14:22 | 49.60831 | 8.60785 | 5025 ft | 133 kts | 282° |
| 2026-05-07 14:23 | 49.61005 | 8.59402 | 5024 ft | 132 kts | 282° |
| 2026-05-07 14:23 | 49.61181 | 8.58000 | 5022 ft | 132 kts | 282° |
| 2026-05-07 14:23 | 49.61356 | 8.56603 | 5026 ft | 133 kts | 282° |
| 2026-05-07 14:23 | 49.61532 | 8.55199 | 5026 ft | 132 kts | 282° |
| 2026-05-07 14:24 | 49.61706 | 8.53817 | 5016 ft | 134 kts | 282° |
| 2026-05-07 14:24 | 49.61883 | 8.52409 | 5022 ft | 133 kts | 282° |
| 2026-05-07 14:24 | 49.62056 | 8.51019 | 5021 ft | 133 kts | 282° |
| 2026-05-07 14:24 | 49.62234 | 8.49597 | 5017 ft | 133 kts | 282° |
| 2026-05-07 14:25 | 49.62408 | 8.48198 | 5012 ft | 133 kts | 282° |
| 2026-05-07 14:25 | 49.62584 | 8.46786 | 5009 ft | 134 kts | 282° |
| 2026-05-07 14:25 | 49.62757 | 8.45393 | 5001 ft | 134 kts | 282° |
| 2026-05-07 14:25 | 49.62935 | 8.43977 | 4996 ft | 135 kts | 282° |
| 2026-05-07 14:26 | 49.63112 | 8.42560 | 5004 ft | 134 kts | 282° |
| 2026-05-07 14:26 | 49.63286 | 8.41160 | 4998 ft | 134 kts | 282° |
| 2026-05-07 14:26 | 49.63463 | 8.39743 | 4995 ft | 134 kts | 282° |
| 2026-05-07 14:26 | 49.63640 | 8.38326 | 5000 ft | 134 kts | 282° |
| 2026-05-07 14:27 | 49.63812 | 8.36938 | 5001 ft | 134 kts | 281° |
| 2026-05-07 14:27 | 49.63990 | 8.35503 | 5000 ft | 134 kts | 282° |
| 2026-05-07 14:27 | 49.64164 | 8.34098 | 5000 ft | 134 kts | 282° |
| 2026-05-07 14:27 | 49.64337 | 8.32695 | 5002 ft | 134 kts | 282° |
| 2026-05-07 14:28 | 49.64456 | 8.31734 | 4999 ft | 134 kts | 282° |
| 2026-05-07 14:28 | 49.64631 | 8.30311 | 5000 ft | 134 kts | 282° |
| 2026-05-07 14:28 | 49.64863 | 8.28435 | 4997 ft | 134 kts | 282° |
| 2026-05-07 14:28 | 49.65038 | 8.27011 | 5001 ft | 134 kts | 282° |
| 2026-05-07 14:29 | 49.65211 | 8.25600 | 4996 ft | 134 kts | 282° |
| 2026-05-07 14:29 | 49.65327 | 8.24660 | 4998 ft | 134 kts | 282° |
| 2026-05-07 14:29 | 49.65500 | 8.23250 | 4997 ft | 134 kts | 282° |
| 2026-05-07 14:29 | 49.65672 | 8.21844 | 5002 ft | 134 kts | 281° |
| 2026-05-07 14:30 | 49.65848 | 8.20406 | 4993 ft | 134 kts | 282° |
| 2026-05-07 14:30 | 49.66021 | 8.19005 | 4990 ft | 135 kts | 282° |
| 2026-05-07 14:30 | 49.66195 | 8.17590 | 4998 ft | 134 kts | 282° |
| 2026-05-07 14:30 | 49.66368 | 8.16168 | 4997 ft | 134 kts | 281° |
| 2026-05-07 14:31 | 49.66540 | 8.14754 | 5002 ft | 134 kts | 281° |
| 2026-05-07 14:31 | 49.66711 | 8.13343 | 4989 ft | 135 kts | 282° |
| 2026-05-07 14:31 | 49.66886 | 8.11915 | 4997 ft | 135 kts | 282° |
| 2026-05-07 14:31 | 49.67057 | 8.10495 | 5011 ft | 134 kts | 281° |
| 2026-05-07 14:32 | 49.67227 | 8.09077 | 4991 ft | 134 kts | 282° |
| 2026-05-07 14:32 | 49.67396 | 8.07676 | 4991 ft | 134 kts | 281° |
| 2026-05-07 14:32 | 49.67571 | 8.06235 | 4995 ft | 135 kts | 282° |
| 2026-05-07 14:32 | 49.67741 | 8.04830 | 4993 ft | 135 kts | 282° |
| 2026-05-07 14:33 | 49.67913 | 8.03406 | 4999 ft | 134 kts | 282° |
| 2026-05-07 14:33 | 49.68084 | 8.01990 | 4996 ft | 135 kts | 282° |
| 2026-05-07 14:33 | 49.68256 | 8.00567 | 4998 ft | 135 kts | 282° |
| 2026-05-07 14:33 | 49.68428 | 7.99148 | 4996 ft | 135 kts | 282° |
| 2026-05-07 14:34 | 49.68599 | 7.97730 | 4997 ft | 134 kts | 282° |
| 2026-05-07 14:34 | 49.68770 | 7.96308 | 4998 ft | 134 kts | 282° |
| 2026-05-07 14:34 | 49.68940 | 7.94886 | 4997 ft | 134 kts | 282° |
| 2026-05-07 14:34 | 49.69106 | 7.93501 | 4995 ft | 135 kts | 282° |
| 2026-05-07 14:35 | 49.69280 | 7.92048 | 5005 ft | 135 kts | 282° |
| 2026-05-07 14:35 | 49.69450 | 7.90632 | 4995 ft | 136 kts | 282° |
| 2026-05-07 14:35 | 49.69622 | 7.89204 | 4992 ft | 135 kts | 281° |
| 2026-05-07 14:35 | 49.69793 | 7.87774 | 4998 ft | 135 kts | 282° |
| 2026-05-07 14:36 | 49.69963 | 7.86348 | 4999 ft | 135 kts | 282° |
| 2026-05-07 14:36 | 49.70135 | 7.84914 | 4993 ft | 136 kts | 282° |
| 2026-05-07 14:36 | 49.70305 | 7.83486 | 4998 ft | 135 kts | 282° |
| 2026-05-07 14:36 | 49.70475 | 7.82055 | 4998 ft | 135 kts | 282° |
| 2026-05-07 14:37 | 49.70644 | 7.80630 | 4990 ft | 135 kts | 281° |
| 2026-05-07 14:37 | 49.70986 | 7.77769 | 4991 ft | 136 kts | 282° |
| 2026-05-07 14:37 | 49.71156 | 7.76336 | 4999 ft | 135 kts | 282° |
| 2026-05-07 14:38 | 49.71324 | 7.74911 | 5000 ft | 135 kts | 281° |
| 2026-05-07 14:38 | 49.71492 | 7.73477 | 4997 ft | 135 kts | 281° |
| 2026-05-07 14:38 | 49.71661 | 7.72046 | 4994 ft | 136 kts | 281° |
| 2026-05-07 14:38 | 49.71830 | 7.70611 | 4997 ft | 135 kts | 282° |
| 2026-05-07 14:39 | 49.71995 | 7.69206 | 5000 ft | 136 kts | 281° |
| 2026-05-07 14:39 | 49.72163 | 7.67756 | 4995 ft | 135 kts | 281° |
| 2026-05-07 14:39 | 49.72328 | 7.66346 | 4990 ft | 136 kts | 282° |
| 2026-05-07 14:39 | 49.72502 | 7.64891 | 4992 ft | 136 kts | 282° |
| 2026-05-07 14:40 | 49.72671 | 7.63471 | 4999 ft | 136 kts | 282° |
| 2026-05-07 14:40 | 49.72839 | 7.62040 | 5000 ft | 136 kts | 281° |
| 2026-05-07 14:40 | 49.73008 | 7.60592 | 4997 ft | 136 kts | 281° |
| 2026-05-07 14:40 | 49.73175 | 7.59154 | 4999 ft | 136 kts | 281° |
| 2026-05-07 14:41 | 49.73341 | 7.57720 | 4998 ft | 136 kts | 282° |
| 2026-05-07 14:41 | 49.73508 | 7.56283 | 4996 ft | 136 kts | 282° |
| 2026-05-07 14:41 | 49.73677 | 7.54840 | 5002 ft | 136 kts | 282° |
| 2026-05-07 14:41 | 49.73843 | 7.53405 | 4998 ft | 135 kts | 281° |
| 2026-05-07 14:42 | 49.74010 | 7.51966 | 4999 ft | 136 kts | 282° |
| 2026-05-07 14:42 | 49.74176 | 7.50530 | 4992 ft | 136 kts | 282° |
| 2026-05-07 14:42 | 49.74345 | 7.49085 | 4999 ft | 137 kts | 281° |
| 2026-05-07 14:42 | 49.74513 | 7.47639 | 4998 ft | 137 kts | 281° |
| 2026-05-07 14:43 | 49.74680 | 7.46197 | 5001 ft | 136 kts | 281° |
| 2026-05-07 14:43 | 49.74849 | 7.44743 | 5001 ft | 137 kts | 281° |
| 2026-05-07 14:43 | 49.75017 | 7.43295 | 4997 ft | 137 kts | 281° |
| 2026-05-07 14:43 | 49.75184 | 7.41845 | 5000 ft | 137 kts | 281° |
| 2026-05-07 14:44 | 49.75351 | 7.40393 | 5003 ft | 137 kts | 281° |
| 2026-05-07 14:44 | 49.75513 | 7.38956 | 4880 ft | 135 kts | 281° |
| 2026-05-07 14:44 | 49.75671 | 7.37529 | 4700 ft | 135 kts | 281° |
| 2026-05-07 14:44 | 49.75826 | 7.36115 | 4392 ft | 132 kts | 281° |
| 2026-05-07 14:45 | 49.75974 | 7.34724 | 4011 ft | 130 kts | 281° |
| 2026-05-07 14:45 | 49.76119 | 7.33379 | 3633 ft | 127 kts | 282° |
| 2026-05-07 14:45 | 49.76268 | 7.32030 | 3272 ft | 127 kts | 282° |
| 2026-05-07 14:45 | 49.76428 | 7.30653 | 3102 ft | 131 kts | 282° |
| 2026-05-07 14:46 | 49.76595 | 7.29254 | 3020 ft | 135 kts | 282° |
| 2026-05-07 14:46 | 49.76766 | 7.27820 | 3006 ft | 135 kts | 282° |
| 2026-05-07 14:46 | 49.76936 | 7.26393 | 2998 ft | 135 kts | 282° |
| 2026-05-07 14:46 | 49.77103 | 7.24963 | 2982 ft | 136 kts | 283° |
| 2026-05-07 14:47 | 49.77270 | 7.23527 | 2995 ft | 134 kts | 282° |
| 2026-05-07 14:47 | 49.77433 | 7.22101 | 2991 ft | 134 kts | 281° |
| 2026-05-07 14:47 | 49.77595 | 7.20681 | 3002 ft | 133 kts | 282° |
| 2026-05-07 14:47 | 49.77756 | 7.19261 | 2993 ft | 134 kts | 282° |
| 2026-05-07 14:48 | 49.77919 | 7.17833 | 2990 ft | 135 kts | 282° |
| 2026-05-07 14:48 | 49.78082 | 7.16401 | 2996 ft | 135 kts | 282° |
| 2026-05-07 14:48 | 49.78176 | 7.15567 | 2989 ft | 134 kts | 281° |
| 2026-05-07 14:48 | 49.78339 | 7.14141 | 2986 ft | 136 kts | 281° |
| 2026-05-07 14:49 | 49.78498 | 7.12728 | 2994 ft | 134 kts | 282° |
| 2026-05-07 14:49 | 49.78667 | 7.11309 | 2992 ft | 134 kts | 285° |
| 2026-05-07 14:49 | 49.78999 | 7.09963 | 2990 ft | 134 kts | 296° |
| 2026-05-07 14:49 | 49.79416 | 7.08669 | 2992 ft | 132 kts | 299° |
| 2026-05-07 14:50 | 49.79835 | 7.07427 | 2994 ft | 132 kts | 299° |
| 2026-05-07 14:50 | 49.80259 | 7.06176 | 2994 ft | 131 kts | 299° |
| 2026-05-07 14:50 | 49.80690 | 7.04914 | 2968 ft | 132 kts | 300° |
| 2026-05-07 14:50 | 49.81129 | 7.03638 | 2990 ft | 132 kts | 299° |
| 2026-05-07 14:51 | 49.81549 | 7.02406 | 2991 ft | 131 kts | 299° |
| 2026-05-07 14:51 | 49.81975 | 7.01160 | 2967 ft | 132 kts | 300° |
| 2026-05-07 14:51 | 49.82409 | 6.99902 | 2973 ft | 132 kts | 299° |
| 2026-05-07 14:51 | 49.82843 | 6.98642 | 2988 ft | 133 kts | 299° |
| 2026-05-07 14:52 | 49.83275 | 6.97377 | 2991 ft | 132 kts | 298° |
| 2026-05-07 14:52 | 49.83706 | 6.96114 | 2976 ft | 133 kts | 299° |
| 2026-05-07 14:52 | 49.84137 | 6.94850 | 2983 ft | 132 kts | 299° |
| 2026-05-07 14:52 | 49.84566 | 6.93595 | 2974 ft | 133 kts | 298° |
| 2026-05-07 14:53 | 49.84999 | 6.92325 | 2982 ft | 132 kts | 299° |
| 2026-05-07 14:53 | 49.85428 | 6.91070 | 2976 ft | 133 kts | 299° |
| 2026-05-07 14:53 | 49.85858 | 6.89808 | 2983 ft | 133 kts | 299° |
| 2026-05-07 14:53 | 49.86291 | 6.88539 | 2979 ft | 133 kts | 299° |
| 2026-05-07 14:54 | 49.86722 | 6.87275 | 2976 ft | 133 kts | 299° |
| 2026-05-07 14:54 | 49.87155 | 6.86009 | 2982 ft | 132 kts | 298° |
| 2026-05-07 14:54 | 49.87586 | 6.84741 | 2981 ft | 133 kts | 299° |
| 2026-05-07 14:54 | 49.88011 | 6.83494 | 2984 ft | 133 kts | 298° |
| 2026-05-07 14:55 | 49.88442 | 6.82226 | 2974 ft | 133 kts | 299° |
| 2026-05-07 14:55 | 49.88880 | 6.80946 | 2980 ft | 133 kts | 299° |
| 2026-05-07 14:55 | 49.89314 | 6.79669 | 2983 ft | 132 kts | 299° |
| 2026-05-07 14:55 | 49.89748 | 6.78399 | 2971 ft | 134 kts | 299° |
| 2026-05-07 14:56 | 49.90181 | 6.77127 | 2984 ft | 133 kts | 298° |
| 2026-05-07 14:56 | 49.90615 | 6.75850 | 2982 ft | 133 kts | 298° |
| 2026-05-07 14:56 | 49.91158 | 6.74694 | 2906 ft | 133 kts | 314° |
| 2026-05-07 14:56 | 49.91813 | 6.73664 | 2597 ft | 135 kts | 315° |
| 2026-05-07 14:57 | 49.92451 | 6.72681 | 2516 ft | 125 kts | 316° |
| 2026-05-07 14:57 | 49.93068 | 6.71769 | 2454 ft | 119 kts | 319° |
| 2026-05-07 14:57 | 49.93693 | 6.70960 | 2407 ft | 116 kts | 321° |
| 2026-05-07 14:57 | 49.94322 | 6.70198 | 2358 ft | 111 kts | 322° |
| 2026-05-07 14:58 | 49.94893 | 6.69500 | 2175 ft | 96 kts | 322° |
| 2026-05-07 14:58 | 49.95360 | 6.68899 | 2002 ft | 80 kts | 321° |
| 2026-05-07 14:58 | 49.95747 | 6.68365 | 1748 ft | 69 kts | 318° |
| 2026-05-07 14:58 | 49.96083 | 6.67903 | 1467 ft | 61 kts | 339° |
| 2026-05-07 14:59 | 49.96460 | 6.68050 | 1310 ft | 57 kts | 35° |
| 2026-05-07 14:59 | 49.96734 | 6.68437 | 1243 ft | 46 kts | 40° |
| 2026-05-07 14:59 | 49.96940 | 6.68764 | 1218 ft | 42 kts | 41° |
| 2026-05-07 14:59 | 49.97152 | 6.69076 | 1222 ft | 42 kts | 49° |
| 2026-05-07 15:00 | 49.97351 | 6.69384 | 1215 ft | 39 kts | 41° |
| 2026-05-07 15:00 | 49.97535 | 6.69666 | 1208 ft | 32 kts | 37° |
| 2026-05-07 15:00 | 49.97646 | 6.69710 | 1209 ft | 15 kts | 315° |
| 2026-05-07 15:00 | 49.97693 | 6.69638 | 1203 ft | 2 kts | 319° |
| 2026-05-07 15:01 | 49.97739 | 6.69567 | 1204 ft | 13 kts | 313° |
| 2026-05-07 15:01 | 49.97795 | 6.69477 | 1205 ft | 11 kts | 313° |
| 2026-05-07 15:01 | 49.97852 | 6.69407 | 1204 ft | 10 kts | 17° |
| 2026-05-07 15:01 | 49.97905 | 6.69468 | 1202 ft | 10 kts | 39° |
| 2026-05-07 15:02 | 49.97943 | 6.69499 | 1200 ft | 3 kts | 314° |
| 2026-05-07 15:02 | 49.97950 | 6.69489 | 1197 ft | 2 kts | 314° |
| 2026-05-07 15:02 | 49.97951 | 6.69488 | 1194 ft | 0 kts | 313° |